createdAt,value
2022-10-29T00:01:22.342Z,73.97
2022-10-29T00:03:23.817Z,74.20
2022-10-29T00:05:25.136Z,74.28
2022-10-29T00:07:26.463Z,74.34
2022-10-29T00:09:27.736Z,74.49
2022-10-29T00:11:29.017Z,74.40
2022-10-29T00:13:30.330Z,74.30
2022-10-29T00:15:31.610Z,74.78
2022-10-29T00:17:32.884Z,74.42
2022-10-29T00:19:34.157Z,74.89
2022-10-29T00:21:35.601Z,74.85
2022-10-29T00:23:36.876Z,75.35
2022-10-29T00:25:38.165Z,74.99
2022-10-29T00:27:39.480Z,75.10
2022-10-29T00:29:40.769Z,74.89
2022-10-29T00:31:42.099Z,74.86
2022-10-29T00:33:43.516Z,75.39
2022-10-29T00:35:44.788Z,74.74
2022-10-29T00:37:46.055Z,74.93
2022-10-29T00:39:47.384Z,75.02
2022-10-29T00:41:48.718Z,74.79
2022-10-29T00:43:50.012Z,75.12
2022-10-29T00:45:51.293Z,75.02
2022-10-29T00:47:52.714Z,74.96
2022-10-29T00:49:54.133Z,74.68
2022-10-29T00:51:55.461Z,74.78
2022-10-29T00:53:56.737Z,74.96
2022-10-29T00:55:58.040Z,75.31
2022-10-29T00:58:00.836Z,75.13
2022-10-29T01:00:02.173Z,74.94
2022-10-29T01:02:03.567Z,75.11
2022-10-29T01:04:04.951Z,75.21
2022-10-29T01:06:06.234Z,75.22
2022-10-29T01:08:07.564Z,75.42
2022-10-29T01:10:08.848Z,75.09
2022-10-29T01:12:10.180Z,75.82
2022-10-29T01:14:11.469Z,76.02
2022-10-29T01:16:12.762Z,75.94
2022-10-29T01:18:14.059Z,75.90
2022-10-29T01:20:15.323Z,75.39
2022-10-29T01:22:16.602Z,75.95
2022-10-29T01:24:17.911Z,75.46
2022-10-29T01:26:19.220Z,75.31
2022-10-29T01:28:20.596Z,75.41
2022-10-29T01:30:21.923Z,75.58
2022-10-29T01:32:23.220Z,75.30
2022-10-29T01:34:24.565Z,75.02
2022-10-29T01:36:25.861Z,75.74
2022-10-29T01:38:27.206Z,75.63
2022-10-29T01:40:28.476Z,75.97
2022-10-29T01:42:29.751Z,75.70
2022-10-29T01:44:31.066Z,75.98
2022-10-29T01:46:32.329Z,75.81
2022-10-29T01:48:34.567Z,75.71
2022-10-29T01:50:35.886Z,75.67
2022-10-29T01:52:37.218Z,75.67
2022-10-29T01:54:38.506Z,75.66
2022-10-29T01:56:39.814Z,75.81
2022-10-29T01:58:42.162Z,75.40
2022-10-29T02:00:43.546Z,75.41
2022-10-29T02:02:54.679Z,75.37
2022-10-29T02:04:56.025Z,75.32
2022-10-29T02:06:57.329Z,75.59
2022-10-29T02:08:58.616Z,75.85
2022-10-29T02:10:59.884Z,75.42
2022-10-29T02:13:01.220Z,74.72
2022-10-29T02:15:02.512Z,74.61
2022-10-29T02:17:03.854Z,74.80
2022-10-29T02:19:05.154Z,74.50
2022-10-29T02:21:06.453Z,74.80
2022-10-29T02:23:07.784Z,75.02
2022-10-29T02:25:09.148Z,74.90
2022-10-29T02:27:10.540Z,74.73
2022-10-29T02:29:11.837Z,74.87
2022-10-29T02:31:13.158Z,74.50
2022-10-29T02:33:14.461Z,74.69
2022-10-29T02:35:15.723Z,74.82
2022-10-29T02:37:16.993Z,74.62
2022-10-29T02:39:18.320Z,75.35
2022-10-29T02:41:19.643Z,75.21
2022-10-29T02:43:20.924Z,74.77
2022-10-29T02:45:22.205Z,74.91
2022-10-29T02:47:23.501Z,75.20
2022-10-29T02:49:24.787Z,74.92
2022-10-29T02:51:26.095Z,75.21
2022-10-29T02:53:27.624Z,74.81
2022-10-29T02:55:28.907Z,74.83
2022-10-29T02:57:30.163Z,74.65
2022-10-29T02:59:31.429Z,75.20
2022-10-29T03:01:32.973Z,75.07
2022-10-29T03:03:34.393Z,74.77
2022-10-29T03:05:35.681Z,74.99
2022-10-29T03:07:37.018Z,74.77
2022-10-29T03:09:38.285Z,75.08
2022-10-29T03:11:39.593Z,75.32
2022-10-29T03:13:40.980Z,74.73
2022-10-29T03:15:42.258Z,74.99
2022-10-29T03:17:43.525Z,75.10
2022-10-29T03:19:44.800Z,75.20
2022-10-29T03:21:46.113Z,75.32
2022-10-29T03:23:47.377Z,75.12
2022-10-29T03:25:52.886Z,74.75
2022-10-29T03:27:57.072Z,74.81
2022-10-29T03:29:58.476Z,75.01
2022-10-29T03:31:59.736Z,74.80
2022-10-29T03:34:01.010Z,75.16
2022-10-29T03:36:02.390Z,74.70
2022-10-29T03:38:03.725Z,74.99
2022-10-29T03:40:05.002Z,75.10
2022-10-29T03:42:06.334Z,75.13
2022-10-29T03:44:07.625Z,75.22
2022-10-29T03:46:08.961Z,74.79
2022-10-29T03:48:10.223Z,75.04
2022-10-29T03:50:11.579Z,75.04
2022-10-29T03:52:12.835Z,75.11
2022-10-29T03:54:14.332Z,75.06
2022-10-29T03:56:15.609Z,75.16
2022-10-29T03:58:16.875Z,75.09
2022-10-29T04:00:18.169Z,74.69
2022-10-29T04:02:19.656Z,74.86
2022-10-29T04:04:21.114Z,74.75
2022-10-29T04:06:22.384Z,75.49
2022-10-29T04:08:23.728Z,75.42
2022-10-29T04:10:26.717Z,75.40
2022-10-29T04:12:28.026Z,75.39
2022-10-29T04:14:29.358Z,75.21
2022-10-29T04:16:30.657Z,75.26
2022-10-29T04:18:31.936Z,75.36
2022-10-29T04:20:47.728Z,75.52
2022-10-29T04:29:58.917Z,75.13
2022-10-29T04:32:00.233Z,75.34
2022-10-29T04:34:01.509Z,75.33
2022-10-29T04:36:02.825Z,75.58
2022-10-29T04:38:04.121Z,74.98
2022-10-29T04:40:05.388Z,75.24
2022-10-29T04:42:06.673Z,75.49
2022-10-29T04:44:07.949Z,75.30
2022-10-29T04:46:09.226Z,75.19
2022-10-29T04:48:10.553Z,75.26
2022-10-29T04:50:11.849Z,75.83
2022-10-29T04:52:13.161Z,75.50
2022-10-29T04:54:15.572Z,75.50
2022-10-29T04:56:16.904Z,74.99
2022-10-29T04:58:18.226Z,75.25
2022-10-29T05:00:19.528Z,75.21
2022-10-29T05:02:20.809Z,75.28
2022-10-29T05:04:22.153Z,75.46
2022-10-29T05:06:23.419Z,75.17
2022-10-29T05:08:24.684Z,75.48
2022-10-29T05:10:26.000Z,75.35
2022-10-29T05:12:27.294Z,75.69
2022-10-29T05:14:28.569Z,75.63
2022-10-29T05:16:29.865Z,75.05
2022-10-29T05:18:31.137Z,74.73
2022-10-29T05:20:32.398Z,75.15
2022-10-29T05:22:33.720Z,75.12
2022-10-29T05:24:34.997Z,74.67
2022-10-29T05:26:36.257Z,74.85
2022-10-29T05:28:37.560Z,75.09
2022-10-29T05:30:39.039Z,75.13
2022-10-29T05:32:40.309Z,75.52
2022-10-29T05:34:44.429Z,75.04
2022-10-29T05:36:46.122Z,74.99
2022-10-29T05:38:47.441Z,75.17
2022-10-29T05:40:48.755Z,75.35
2022-10-29T05:42:50.028Z,75.12
2022-10-29T05:44:51.489Z,75.03
2022-10-29T05:46:52.790Z,75.34
2022-10-29T05:48:54.068Z,75.08
2022-10-29T05:50:55.372Z,74.89
2022-10-29T05:52:57.108Z,75.27
2022-10-29T05:54:58.696Z,74.73
2022-10-29T05:57:00.040Z,75.07
2022-10-29T05:59:01.336Z,74.79
2022-10-29T06:01:02.621Z,74.65
2022-10-29T06:03:04.028Z,74.95
2022-10-29T06:05:05.371Z,74.41
2022-10-29T06:07:06.640Z,74.71
2022-10-29T06:09:07.989Z,74.65
2022-10-29T06:11:09.272Z,74.62
2022-10-29T06:13:10.590Z,75.03
2022-10-29T06:15:11.960Z,74.91
2022-10-29T06:17:13.274Z,74.82
2022-10-29T06:19:14.551Z,75.16
2022-10-29T06:21:15.807Z,75.32
2022-10-29T06:23:17.877Z,75.00
2022-10-29T06:25:19.157Z,75.40
2022-10-29T06:27:20.481Z,75.67
2022-10-29T06:29:21.778Z,75.05
2022-10-29T06:31:23.043Z,74.97
2022-10-29T06:33:24.349Z,75.09
2022-10-29T06:35:25.723Z,75.30
2022-10-29T06:37:27.360Z,75.45
2022-10-29T06:39:28.642Z,75.21
2022-10-29T06:41:29.945Z,75.49
2022-10-29T06:43:31.249Z,75.09
2022-10-29T06:45:32.559Z,75.13
2022-10-29T06:47:33.831Z,75.54
2022-10-29T06:49:35.096Z,75.70
2022-10-29T06:51:36.394Z,75.83
2022-10-29T06:53:37.664Z,75.87
2022-10-29T06:55:38.946Z,75.66
2022-10-29T06:57:42.188Z,75.38
2022-10-29T06:59:43.454Z,76.00
2022-10-29T07:01:46.605Z,76.10
2022-10-29T07:03:48.066Z,76.32
2022-10-29T07:05:49.536Z,76.22
2022-10-29T07:07:50.810Z,76.28
2022-10-29T07:09:52.086Z,76.02
2022-10-29T07:11:53.428Z,75.86
2022-10-29T07:13:54.721Z,75.38
2022-10-29T07:15:56.030Z,75.55
2022-10-29T07:17:57.889Z,75.29
2022-10-29T07:19:59.362Z,75.08
2022-10-29T07:22:00.638Z,75.29
2022-10-29T07:24:01.904Z,75.13
2022-10-29T07:26:03.175Z,75.22
2022-10-29T07:28:04.547Z,75.04
2022-10-29T07:30:05.912Z,75.35
2022-10-29T07:32:07.188Z,75.42
2022-10-29T07:34:08.535Z,75.43
2022-10-29T07:36:09.963Z,75.48
2022-10-29T07:38:11.733Z,75.13
2022-10-29T07:40:13.143Z,75.27
2022-10-29T07:42:14.454Z,75.24
2022-10-29T07:44:15.747Z,75.12
2022-10-29T07:46:17.061Z,75.15
2022-10-29T07:48:18.402Z,75.13
2022-10-29T07:50:19.719Z,75.31
2022-10-29T07:52:21.042Z,75.00
2022-10-29T07:54:22.336Z,75.18
2022-10-29T07:56:23.671Z,75.04
2022-10-29T07:58:25.048Z,75.09
2022-10-29T08:00:26.381Z,75.08
2022-10-29T08:02:27.678Z,74.69
2022-10-29T08:04:28.957Z,74.86
2022-10-29T08:06:30.281Z,74.79
2022-10-29T08:08:31.765Z,74.48
2022-10-29T08:10:33.039Z,74.64
2022-10-29T08:12:34.309Z,74.32
2022-10-29T08:14:35.645Z,74.30
2022-10-29T08:16:36.928Z,74.20
2022-10-29T08:18:38.216Z,73.43
2022-10-29T08:20:39.519Z,67.78
2022-10-29T08:22:41.011Z,68.04
2022-10-29T08:24:44.702Z,66.64
2022-10-29T08:26:46.053Z,66.12
2022-10-29T08:28:47.321Z,65.61
2022-10-29T08:30:48.585Z,67.42
2022-10-29T08:32:49.945Z,67.60
2022-10-29T08:34:51.273Z,67.60
2022-10-29T08:36:52.578Z,67.85
2022-10-29T08:38:53.877Z,67.62
2022-10-29T08:40:55.175Z,68.10
2022-10-29T08:42:56.720Z,68.01
2022-10-29T08:44:58.487Z,68.56
2022-10-29T08:47:02.498Z,68.80
2022-10-29T08:49:06.643Z,68.96
2022-10-29T08:51:07.962Z,69.40
2022-10-29T08:53:22.792Z,69.23
2022-10-29T08:55:24.815Z,69.63
2022-10-29T08:57:26.100Z,70.55
2022-10-29T08:59:27.413Z,70.36
2022-10-29T09:01:28.853Z,70.68
2022-10-29T09:03:30.283Z,70.11
2022-10-29T09:05:31.610Z,69.94
2022-10-29T09:07:34.495Z,70.17
2022-10-29T09:09:35.837Z,70.54
2022-10-29T09:11:37.101Z,71.00
2022-10-29T09:13:38.395Z,71.27
2022-10-29T09:15:39.653Z,71.26
2022-10-29T09:17:41.676Z,71.51
2022-10-29T09:19:42.960Z,71.39
2022-10-29T09:21:44.232Z,71.66
2022-10-29T09:23:45.500Z,71.51
2022-10-29T09:25:46.762Z,71.84
2022-10-29T09:27:48.048Z,71.82
2022-10-29T09:29:49.324Z,71.57
2022-10-29T09:31:50.627Z,71.95
2022-10-29T09:33:52.355Z,71.92
2022-10-29T09:35:54.976Z,72.33
2022-10-29T09:37:56.578Z,72.60
2022-10-29T09:39:58.101Z,72.48
2022-10-29T09:41:59.439Z,72.64
2022-10-29T09:44:03.560Z,72.70
2022-10-29T09:46:04.845Z,72.86
2022-10-29T09:48:06.113Z,72.72
2022-10-29T09:50:08.913Z,72.58
2022-10-29T09:52:10.512Z,72.86
2022-10-29T09:54:11.840Z,72.56
2022-10-29T09:56:13.149Z,73.00
2022-10-29T09:58:14.418Z,72.49
2022-10-29T10:00:15.708Z,72.76
2022-10-29T10:02:17.049Z,72.79
2022-10-29T10:04:18.416Z,72.76
2022-10-29T10:06:20.087Z,72.81
2022-10-29T10:08:21.365Z,72.53
2022-10-29T10:10:25.564Z,72.50
2022-10-29T10:12:26.899Z,72.06
2022-10-29T10:14:29.380Z,71.96
2022-10-29T10:16:30.679Z,71.87
2022-10-29T10:18:32.030Z,71.80
2022-10-29T10:20:33.399Z,71.91
2022-10-29T10:22:34.672Z,72.12
2022-10-29T10:24:36.163Z,71.73
2022-10-29T10:26:39.415Z,72.07
2022-10-29T10:28:40.724Z,72.18
2022-10-29T10:30:46.209Z,72.25
2022-10-29T10:32:47.963Z,72.59
2022-10-29T10:34:49.789Z,72.12
2022-10-29T10:36:51.120Z,72.54
2022-10-29T10:38:52.605Z,71.94
2022-10-29T10:40:54.286Z,71.72
2022-10-29T10:42:55.686Z,72.03
2022-10-29T10:44:57.031Z,72.31
2022-10-29T10:46:58.368Z,72.70
2022-10-29T10:48:59.683Z,72.47
2022-10-29T10:51:00.969Z,72.77
2022-10-29T10:53:02.245Z,72.33
2022-10-29T10:55:03.518Z,72.16
2022-10-29T10:57:04.886Z,71.98
2022-10-29T10:59:06.221Z,72.59
2022-10-29T11:01:07.540Z,72.39
2022-10-29T11:03:08.946Z,71.92
2022-10-29T11:05:10.324Z,72.22
2022-10-29T11:07:11.589Z,72.44
2022-10-29T11:09:12.867Z,72.16
2022-10-29T11:11:14.168Z,72.04
2022-10-29T11:13:16.152Z,72.21
2022-10-29T11:15:17.451Z,72.03
2022-10-29T11:17:18.712Z,72.74
2022-10-29T11:19:19.995Z,72.28
2022-10-29T11:21:21.325Z,72.98
2022-10-29T11:23:25.437Z,73.18
2022-10-29T11:25:26.752Z,73.44
2022-10-29T11:27:28.442Z,73.47
2022-10-29T11:29:29.781Z,73.73
2022-10-29T11:31:31.045Z,73.70
2022-10-29T11:33:32.333Z,73.75
2022-10-29T11:35:33.616Z,73.05
2022-10-29T11:37:34.950Z,72.71
2022-10-29T11:39:36.223Z,72.76
2022-10-29T11:41:37.501Z,72.86
2022-10-29T11:43:38.887Z,73.23
2022-10-29T11:45:40.959Z,73.56
2022-10-29T11:47:42.238Z,73.53
2022-10-29T11:49:43.512Z,73.43
2022-10-29T11:51:44.836Z,73.78
2022-10-29T11:53:46.133Z,73.54
2022-10-29T11:55:47.456Z,73.62
2022-10-29T11:57:48.757Z,74.16
2022-10-29T11:59:50.040Z,74.02
2022-10-29T12:01:51.373Z,73.82
2022-10-29T12:03:52.865Z,74.13
2022-10-29T12:05:54.171Z,73.83
2022-10-29T12:07:55.757Z,74.27
2022-10-29T12:09:57.295Z,73.91
2022-10-29T12:11:58.588Z,74.13
2022-10-29T12:13:59.911Z,74.29
2022-10-29T12:16:01.164Z,74.12
2022-10-29T12:18:03.241Z,74.21
2022-10-29T12:22:10.712Z,74.04
2022-10-29T12:24:12.014Z,73.81
2022-10-29T12:26:13.294Z,73.93
2022-10-29T12:28:19.136Z,73.97
2022-10-29T12:30:20.486Z,74.09
2022-10-29T12:32:21.814Z,74.23
2022-10-29T12:34:23.125Z,74.05
2022-10-29T12:36:27.149Z,74.27
2022-10-29T12:38:28.430Z,73.97
2022-10-29T12:40:29.760Z,74.16
2022-10-29T12:42:31.033Z,74.05
2022-10-29T12:44:32.325Z,74.47
2022-10-29T12:46:33.624Z,74.29
2022-10-29T12:48:34.960Z,74.31
2022-10-29T12:50:36.293Z,74.10
2022-10-29T12:52:37.621Z,74.13
2022-10-29T12:54:38.888Z,74.55
2022-10-29T12:56:40.178Z,74.34
2022-10-29T12:58:41.460Z,74.55
2022-10-29T13:00:45.808Z,74.78
2022-10-29T13:02:47.390Z,74.73
2022-10-29T13:04:48.958Z,74.25
2022-10-29T13:06:52.489Z,74.04
2022-10-29T13:08:53.761Z,74.04
2022-10-29T13:10:55.192Z,74.24
2022-10-29T13:12:56.580Z,73.90
2022-10-29T13:14:57.840Z,73.78
2022-10-29T13:16:59.142Z,73.78
2022-10-29T13:19:00.456Z,73.48
2022-10-29T13:21:01.726Z,73.18
2022-10-29T13:23:05.316Z,73.45
2022-10-29T13:25:09.477Z,73.71
2022-10-29T13:27:11.914Z,73.55
2022-10-29T13:29:13.224Z,73.85
2022-10-29T13:31:14.540Z,74.14
2022-10-29T13:33:15.833Z,74.34
2022-10-29T13:35:17.124Z,74.37
2022-10-29T13:37:19.310Z,74.14
2022-10-29T13:39:20.798Z,74.23
2022-10-29T13:41:22.056Z,74.51
2022-10-29T13:43:23.330Z,74.56
2022-10-29T13:45:24.627Z,74.81
2022-10-29T13:47:25.930Z,74.50
2022-10-29T13:49:27.280Z,74.92
2022-10-29T13:51:28.985Z,74.84
2022-10-29T13:53:30.301Z,74.86
2022-10-29T13:55:31.577Z,75.02
2022-10-29T13:57:32.836Z,74.67
2022-10-29T13:59:34.105Z,74.60
2022-10-29T14:01:35.490Z,74.89
2022-10-29T14:03:36.833Z,75.29
2022-10-29T14:05:38.111Z,75.03
2022-10-29T14:07:39.428Z,74.92
2022-10-29T14:09:40.701Z,75.29
2022-10-29T14:11:41.982Z,75.15
2022-10-29T14:13:43.277Z,74.82
2022-10-29T14:15:44.538Z,74.95
2022-10-29T14:17:45.828Z,75.09
2022-10-29T14:19:47.144Z,75.18
2022-10-29T14:21:48.465Z,75.02
2022-10-29T14:23:52.854Z,74.96
2022-10-29T14:25:54.144Z,75.16
2022-10-29T14:27:55.541Z,75.23
2022-10-29T14:29:57.064Z,75.25
2022-10-29T14:31:58.341Z,75.14
2022-10-29T14:33:59.623Z,75.43
2022-10-29T14:36:00.965Z,75.13
2022-10-29T14:38:02.224Z,75.25
2022-10-29T14:40:03.502Z,75.20
2022-10-29T14:42:04.767Z,75.08
2022-10-29T14:44:06.103Z,75.14
2022-10-29T14:46:07.397Z,75.12
2022-10-29T14:48:09.561Z,74.96
2022-10-29T14:50:10.841Z,75.04
2022-10-29T14:52:12.117Z,74.77
2022-10-29T14:54:13.395Z,74.81
2022-10-29T14:56:14.673Z,74.72
2022-10-29T14:58:16.065Z,74.61
2022-10-29T15:00:17.382Z,74.86
2022-10-29T15:02:36.920Z,74.80
2022-10-29T15:04:39.173Z,74.57
2022-10-29T15:06:40.481Z,74.75
2022-10-29T15:08:41.862Z,74.53
2022-10-29T15:10:43.122Z,74.60
2022-10-29T15:12:44.416Z,75.11
2022-10-29T15:14:46.400Z,74.92
2022-10-29T15:16:47.681Z,74.94
2022-10-29T15:18:48.960Z,74.97
2022-10-29T15:20:51.594Z,74.84
2022-10-29T15:22:52.886Z,74.55
2022-10-29T15:24:54.191Z,74.76
2022-10-29T15:26:55.449Z,74.72
2022-10-29T15:28:59.546Z,74.44
2022-10-29T15:31:00.819Z,74.26
2022-10-29T15:33:02.141Z,71.38
2022-10-29T15:35:03.440Z,69.64
2022-10-29T15:37:04.719Z,70.88
2022-10-29T15:39:06.033Z,69.59
2022-10-29T15:41:07.344Z,69.74
2022-10-29T15:43:08.622Z,69.70
2022-10-29T15:45:09.953Z,69.59
2022-10-29T15:47:11.279Z,69.94
2022-10-29T15:49:12.557Z,69.46
2022-10-29T15:51:13.835Z,69.46
2022-10-29T15:53:15.154Z,68.78
2022-10-29T15:55:18.804Z,69.74
2022-10-29T15:57:22.165Z,70.93
2022-10-29T15:59:23.512Z,71.18
2022-10-29T16:01:24.896Z,71.38
2022-10-29T16:03:26.282Z,71.08
2022-10-29T16:05:27.581Z,71.70
2022-10-29T16:07:28.909Z,71.56
2022-10-29T16:09:30.248Z,71.47
2022-10-29T16:11:31.600Z,71.39
2022-10-29T16:13:32.892Z,71.53
2022-10-29T16:15:34.769Z,71.54
2022-10-29T16:17:37.768Z,71.78
2022-10-29T16:19:39.041Z,71.72
2022-10-29T16:21:40.341Z,71.75
2022-10-29T16:23:41.624Z,71.45
2022-10-29T16:25:42.922Z,71.49
2022-10-29T16:27:44.259Z,72.56
2022-10-29T16:29:49.924Z,72.73
2022-10-29T16:31:51.214Z,72.61
2022-10-29T16:33:52.733Z,72.22
2022-10-29T16:35:54.070Z,71.83
2022-10-29T16:37:55.347Z,72.27
2022-10-29T16:39:56.646Z,72.25
2022-10-29T16:41:58.224Z,70.98
2022-10-29T16:43:59.584Z,70.90
2022-10-29T16:46:04.253Z,71.01
2022-10-29T16:48:06.823Z,71.06
2022-10-29T16:50:08.173Z,71.57
2022-10-29T16:52:09.489Z,71.81
2022-10-29T16:54:10.816Z,71.53
2022-10-29T16:56:12.163Z,72.34
2022-10-29T16:58:13.503Z,71.80
2022-10-29T17:00:14.771Z,71.86
2022-10-29T17:02:16.042Z,70.01
2022-10-29T17:04:17.399Z,70.71
2022-10-29T17:06:18.789Z,71.69
2022-10-29T17:08:20.601Z,71.59
2022-10-29T17:10:21.890Z,71.95
2022-10-29T17:12:23.169Z,71.91
2022-10-29T17:14:24.449Z,71.75
2022-10-29T17:16:25.807Z,71.95
2022-10-29T17:18:27.132Z,71.66
2022-10-29T17:20:28.432Z,72.09
2022-10-29T17:22:29.710Z,72.17
2022-10-29T17:24:31.037Z,72.11
2022-10-29T17:26:32.391Z,72.52
2022-10-29T17:28:35.325Z,72.64
2022-10-29T17:30:36.635Z,72.16
2022-10-29T17:32:37.904Z,72.39
2022-10-29T17:34:39.184Z,72.16
2022-10-29T17:36:43.236Z,72.17
2022-10-29T17:38:44.566Z,72.11
2022-10-29T17:40:46.254Z,72.41
2022-10-29T17:42:47.564Z,72.04
2022-10-29T17:44:48.849Z,71.79
2022-10-29T17:46:50.172Z,71.82
2022-10-29T17:48:54.446Z,71.76
2022-10-29T17:50:55.785Z,71.60
2022-10-29T17:52:58.013Z,71.71
2022-10-29T17:54:59.345Z,72.10
2022-10-29T17:57:00.625Z,71.80
2022-10-29T17:59:01.941Z,71.98
2022-10-29T18:01:03.306Z,72.43
2022-10-29T18:03:04.695Z,71.52
2022-10-29T18:05:05.977Z,72.65
2022-10-29T18:07:08.297Z,71.82
2022-10-29T18:09:09.580Z,71.91
2022-10-29T18:11:10.892Z,71.77
2022-10-29T18:13:12.172Z,71.76
2022-10-29T18:15:13.494Z,71.65
2022-10-29T18:17:14.784Z,71.48
2022-10-29T18:19:16.297Z,71.72
2022-10-29T18:21:17.597Z,71.71
2022-10-29T18:23:18.913Z,71.71
2022-10-29T18:25:20.297Z,72.00
2022-10-29T18:27:21.600Z,72.10
2022-10-29T18:29:22.900Z,71.77
2022-10-29T18:31:24.621Z,71.99
2022-10-29T18:33:25.945Z,72.19
2022-10-29T18:35:27.745Z,72.09
2022-10-29T18:37:32.024Z,72.31
2022-10-29T18:39:33.354Z,72.62
2022-10-29T18:41:34.702Z,72.58
2022-10-29T18:43:36.045Z,72.29
2022-10-29T18:45:37.414Z,71.95
2022-10-29T18:47:38.717Z,72.58
2022-10-29T18:49:39.988Z,72.18
2022-10-29T18:51:43.947Z,72.01
2022-10-29T18:53:45.255Z,72.10
2022-10-29T18:55:46.554Z,72.10
2022-10-29T18:57:47.862Z,71.94
2022-10-29T18:59:49.235Z,71.48
2022-10-29T19:01:50.607Z,71.91
2022-10-29T19:03:51.982Z,71.81
2022-10-29T19:05:53.267Z,71.92
2022-10-29T19:07:54.788Z,72.04
2022-10-29T19:09:56.325Z,72.38
2022-10-29T19:11:59.529Z,72.62
2022-10-29T19:14:01.137Z,72.15
2022-10-29T19:16:02.481Z,72.14
2022-10-29T19:18:03.757Z,72.44
2022-10-29T19:20:06.161Z,71.88
2022-10-29T19:22:07.447Z,71.87
2022-10-29T19:24:08.760Z,72.16
2022-10-29T19:26:13.120Z,72.01
2022-10-29T19:28:14.437Z,71.84
2022-10-29T19:30:15.719Z,72.16
2022-10-29T19:32:17.009Z,71.57
2022-10-29T19:34:18.488Z,71.54
2022-10-29T19:36:19.761Z,71.74
2022-10-29T19:38:21.029Z,71.87
2022-10-29T19:40:22.311Z,72.68
2022-10-29T19:42:24.713Z,72.89
2022-10-29T19:44:26.054Z,72.27
2022-10-29T19:46:27.329Z,72.47
2022-10-29T19:48:28.603Z,72.55
2022-10-29T19:50:29.915Z,72.32
2022-10-29T19:52:33.943Z,71.99
2022-10-29T19:54:38.042Z,71.29
2022-10-29T19:56:39.309Z,71.34
2022-10-29T19:58:40.626Z,71.71
2022-10-29T20:00:41.909Z,71.44
2022-10-29T20:02:43.197Z,71.83
2022-10-29T20:04:44.504Z,71.80
2022-10-29T20:06:45.782Z,71.77
2022-10-29T20:08:47.081Z,71.72
2022-10-29T20:10:48.340Z,70.48
2022-10-29T20:12:49.616Z,70.52
2022-10-29T20:14:50.906Z,71.22
2022-10-29T20:16:52.506Z,71.31
2022-10-29T20:18:53.802Z,71.70
2022-10-29T20:20:55.539Z,71.30
2022-10-29T20:22:57.217Z,67.94
2022-10-29T20:25:01.494Z,68.04
2022-10-29T20:27:02.768Z,68.08
2022-10-29T20:29:04.082Z,67.47
2022-10-29T20:31:05.362Z,67.01
2022-10-29T20:33:06.656Z,67.03
2022-10-29T20:35:07.973Z,69.21
2022-10-29T20:37:09.256Z,69.12
2022-10-29T20:39:13.144Z,69.41
2022-10-29T20:41:14.456Z,70.13
2022-10-29T20:43:16.803Z,70.19
2022-10-29T20:45:18.198Z,70.91
2022-10-29T20:47:19.485Z,70.87
2022-10-29T20:49:20.766Z,71.24
2022-10-29T20:51:23.178Z,71.46
2022-10-29T20:53:24.486Z,72.04
2022-10-29T20:55:25.799Z,71.85
2022-10-29T20:57:27.078Z,72.35
2022-10-29T20:59:28.364Z,72.38
2022-10-29T21:01:29.865Z,72.93
2022-10-29T21:03:31.406Z,73.03
2022-10-29T21:05:32.660Z,73.51
2022-10-29T21:07:33.969Z,73.20
2022-10-29T21:09:35.264Z,73.21
2022-10-29T21:11:36.537Z,73.20
2022-10-29T21:13:37.862Z,73.46
2022-10-29T21:15:39.221Z,73.89
2022-10-29T21:17:40.789Z,73.95
2022-10-29T21:19:42.049Z,74.12
2022-10-29T21:21:43.325Z,73.94
2022-10-29T21:23:44.628Z,74.05
2022-10-29T21:25:45.933Z,74.03
2022-10-29T21:27:47.826Z,74.64
2022-10-29T21:29:49.100Z,74.54
2022-10-29T21:31:50.404Z,74.48
2022-10-29T21:33:51.785Z,74.52
2022-10-29T21:35:53.801Z,74.44
2022-10-29T21:37:55.306Z,74.59
2022-10-29T21:39:59.054Z,74.51
2022-10-29T21:42:03.024Z,74.86
2022-10-29T21:44:04.306Z,74.65
2022-10-29T21:46:05.665Z,74.71
2022-10-29T21:48:07.002Z,75.19
2022-10-29T21:50:08.289Z,74.67
2022-10-29T21:52:09.592Z,74.75
2022-10-29T21:54:10.947Z,74.70
2022-10-29T21:56:12.275Z,75.27
2022-10-29T21:58:13.783Z,74.93
2022-10-29T22:00:15.078Z,75.46
2022-10-29T22:02:16.408Z,74.98
2022-10-29T22:04:17.773Z,75.06
2022-10-29T22:06:19.061Z,75.13
2022-10-29T22:08:20.333Z,75.10
2022-10-29T22:10:21.753Z,75.25
2022-10-29T22:12:23.086Z,75.26
2022-10-29T22:14:24.369Z,75.62
2022-10-29T22:16:25.650Z,75.61
2022-10-29T22:18:26.981Z,75.60
2022-10-29T22:20:28.328Z,76.26
2022-10-29T22:22:29.618Z,76.04
2022-10-29T22:24:30.941Z,76.69
2022-10-29T22:26:32.432Z,76.52
2022-10-29T22:28:33.753Z,76.21
2022-10-29T22:30:35.065Z,76.29
2022-10-29T22:32:36.325Z,76.17
2022-10-29T22:34:37.584Z,76.07
2022-10-29T22:36:38.865Z,75.85
2022-10-29T22:38:40.196Z,76.59
2022-10-29T22:40:41.479Z,76.40
2022-10-29T22:42:42.806Z,76.22
2022-10-29T22:44:44.141Z,76.43
2022-10-29T22:46:45.420Z,76.54
2022-10-29T22:48:46.865Z,75.86
2022-10-29T22:50:48.145Z,76.94
2022-10-29T22:52:49.409Z,76.57
2022-10-29T22:54:50.693Z,75.90
2022-10-29T22:56:51.973Z,76.29
2022-10-29T22:58:53.901Z,75.94
2022-10-29T23:00:55.226Z,76.41
2022-10-29T23:02:56.805Z,76.51
2022-10-29T23:04:58.443Z,76.09
2022-10-29T23:07:02.093Z,75.93
2022-10-29T23:09:03.625Z,76.32
2022-10-29T23:11:04.969Z,76.18
2022-10-29T23:13:06.241Z,76.26
2022-10-29T23:15:08.688Z,76.38
2022-10-29T23:17:09.983Z,76.59
2022-10-29T23:19:12.256Z,76.06
2022-10-29T23:21:13.621Z,76.48
2022-10-29T23:23:14.938Z,76.68
2022-10-29T23:25:16.263Z,76.77
2022-10-29T23:27:17.532Z,76.80
2022-10-29T23:29:18.850Z,76.54
2022-10-29T23:31:20.173Z,76.83
2022-10-29T23:33:21.445Z,76.91
2022-10-29T23:35:22.779Z,76.59
2022-10-29T23:37:24.070Z,77.13
2022-10-29T23:39:25.325Z,76.83
2022-10-29T23:41:26.814Z,77.00
2022-10-29T23:43:28.116Z,76.97
2022-10-29T23:45:29.424Z,77.07
2022-10-29T23:47:30.693Z,77.49
2022-10-29T23:49:31.952Z,76.89
2022-10-29T23:53:39.472Z,77.62
2022-10-29T23:55:40.929Z,77.54
2022-10-29T23:57:42.241Z,77.83
2022-10-29T23:59:43.626Z,77.51
